sensor_id;sensor_type;location;lat;lon;timestamp;P1;P2;P0
80555;PMS5003;69889;55.040;73.076;2023-09-12T00:01:09;5.00;4.50;3.00
80555;PMS5003;69889;55.040;73.076;2023-09-12T00:03:36;7.00;6.00;3.00
80555;PMS5003;69889;55.040;73.076;2023-09-12T00:06:02;4.00;4.00;3.00
80555;PMS5003;69889;55.040;73.076;2023-09-12T00:08:30;7.00;6.00;4.00
80555;PMS5003;69889;55.040;73.076;2023-09-12T00:11:00;6.00;5.00;3.00
80555;PMS5003;69889;55.040;73.076;2023-09-12T00:13:27;6.00;5.50;4.00
80555;PMS5003;69889;55.040;73.076;2023-09-12T00:15:54;5.00;5.00;3.00
80555;PMS5003;69889;55.040;73.076;2023-09-12T00:18:21;7.00;6.00;3.50
80555;PMS5003;69889;55.040;73.076;2023-09-12T00:20:47;6.00;5.00;4.00
80555;PMS5003;69889;55.040;73.076;2023-09-12T00:23:14;7.00;6.00;4.00
80555;PMS5003;69889;55.040;73.076;2023-09-12T00:25:40;7.00;5.00;3.00
80555;PMS5003;69889;55.040;73.076;2023-09-12T00:28:07;5.50;4.75;2.50
80555;PMS5003;69889;55.040;73.076;2023-09-12T00:30:34;7.00;6.00;4.00
80555;PMS5003;69889;55.040;73.076;2023-09-12T00:33:00;6.00;5.00;4.00
80555;PMS5003;69889;55.040;73.076;2023-09-12T00:35:27;5.00;4.50;2.50
80555;PMS5003;69889;55.040;73.076;2023-09-12T00:37:54;7.00;5.00;4.00
80555;PMS5003;69889;55.040;73.076;2023-09-12T00:40:22;5.75;5.00;4.00
80555;PMS5003;69889;55.040;73.076;2023-09-12T00:42:49;8.00;7.25;5.00
80555;PMS5003;69889;55.040;73.076;2023-09-12T00:45:16;6.00;6.00;4.00
80555;PMS5003;69889;55.040;73.076;2023-09-12T00:47:42;8.00;7.00;4.00
80555;PMS5003;69889;55.040;73.076;2023-09-12T00:50:09;6.00;6.00;4.00
80555;PMS5003;69889;55.040;73.076;2023-09-12T00:52:37;7.00;5.50;4.00
80555;PMS5003;69889;55.040;73.076;2023-09-12T00:55:06;6.00;5.00;4.00
80555;PMS5003;69889;55.040;73.076;2023-09-12T00:57:33;7.25;6.50;4.00
80555;PMS5003;69889;55.040;73.076;2023-09-12T01:00:01;6.25;5.00;3.00
80555;PMS5003;69889;55.040;73.076;2023-09-12T01:02:29;9.00;7.00;4.75
80555;PMS5003;69889;55.040;73.076;2023-09-12T01:04:56;8.00;7.00;5.00
80555;PMS5003;69889;55.040;73.076;2023-09-12T01:07:23;7.00;6.00;4.00
80555;PMS5003;69889;55.040;73.076;2023-09-12T01:09:53;8.00;7.00;4.00
80555;PMS5003;69889;55.040;73.076;2023-09-12T01:12:19;7.00;5.00;3.75
80555;PMS5003;69889;55.040;73.076;2023-09-12T01:14:46;7.00;6.00;3.00
80555;PMS5003;69889;55.040;73.076;2023-09-12T01:17:13;6.50;5.75;3.00
80555;PMS5003;69889;55.040;73.076;2023-09-12T01:19:40;7.75;6.00;4.00
80555;PMS5003;69889;55.040;73.076;2023-09-12T01:29:39;5.50;5.00;3.00
80555;PMS5003;69889;55.040;73.076;2023-09-12T01:32:06;6.00;5.00;3.25
80555;PMS5003;69889;55.040;73.076;2023-09-12T01:34:33;5.00;5.00;4.00
80555;PMS5003;69889;55.040;73.076;2023-09-12T01:37:00;3.50;3.50;2.75
80555;PMS5003;69889;55.040;73.076;2023-09-12T01:39:28;6.00;5.00;3.00
80555;PMS5003;69889;55.040;73.076;2023-09-12T01:41:55;5.00;5.00;3.25
80555;PMS5003;69889;55.040;73.076;2023-09-12T01:44:24;7.00;6.00;4.00
80555;PMS5003;69889;55.040;73.076;2023-09-12T01:46:51;8.25;7.00;4.00
80555;PMS5003;69889;55.040;73.076;2023-09-12T01:49:19;6.00;5.75;4.00
80555;PMS5003;69889;55.040;73.076;2023-09-12T01:51:47;7.00;6.00;4.00
80555;PMS5003;69889;55.040;73.076;2023-09-12T01:54:15;7.00;6.00;4.00
80555;PMS5003;69889;55.040;73.076;2023-09-12T01:56:42;7.00;6.50;4.00
80555;PMS5003;69889;55.040;73.076;2023-09-12T01:59:09;5.75;5.00;4.00
80555;PMS5003;69889;55.040;73.076;2023-09-12T02:01:37;10.00;8.00;4.00
80555;PMS5003;69889;55.040;73.076;2023-09-12T02:04:04;8.00;7.25;4.00
80555;PMS5003;69889;55.040;73.076;2023-09-12T02:06:35;7.00;6.00;3.75
80555;PMS5003;69889;55.040;73.076;2023-09-12T02:09:01;9.00;7.00;5.00
80555;PMS5003;69889;55.040;73.076;2023-09-12T02:11:28;7.00;6.00;4.25
80555;PMS5003;69889;55.040;73.076;2023-09-12T02:13:55;8.00;6.00;4.00
80555;PMS5003;69889;55.040;73.076;2023-09-12T02:16:22;6.00;6.00;4.00
80555;PMS5003;69889;55.040;73.076;2023-09-12T02:18:49;7.00;6.00;5.00
80555;PMS5003;69889;55.040;73.076;2023-09-12T02:21:15;8.00;6.00;3.75
80555;PMS5003;69889;55.040;73.076;2023-09-12T02:23:42;9.75;8.00;5.00
80555;PMS5003;69889;55.040;73.076;2023-09-12T02:26:09;8.00;7.00;4.00
80555;PMS5003;69889;55.040;73.076;2023-09-12T02:28:35;6.00;5.00;4.00
80555;PMS5003;69889;55.040;73.076;2023-09-12T02:31:03;9.25;8.00;5.00
80555;PMS5003;69889;55.040;73.076;2023-09-12T02:33:29;11.00;9.00;6.00
80555;PMS5003;69889;55.040;73.076;2023-09-12T02:35:56;8.50;7.00;5.00
80555;PMS5003;69889;55.040;73.076;2023-09-12T02:38:22;9.00;7.00;4.25
80555;PMS5003;69889;55.040;73.076;2023-09-12T02:40:49;11.00;8.75;5.50
80555;PMS5003;69889;55.040;73.076;2023-09-12T02:43:16;10.00;8.00;5.00
80555;PMS5003;69889;55.040;73.076;2023-09-12T02:45:43;11.00;9.00;6.00
80555;PMS5003;69889;55.040;73.076;2023-09-12T02:48:10;10.00;8.00;5.00
80555;PMS5003;69889;55.040;73.076;2023-09-12T02:50:36;12.00;9.00;6.00
80555;PMS5003;69889;55.040;73.076;2023-09-12T02:53:03;11.00;9.00;6.00
80555;PMS5003;69889;55.040;73.076;2023-09-12T02:55:30;10.00;7.00;5.00
80555;PMS5003;69889;55.040;73.076;2023-09-12T02:57:56;12.00;10.00;5.00
80555;PMS5003;69889;55.040;73.076;2023-09-12T03:00:23;11.00;8.75;6.00
80555;PMS5003;69889;55.040;73.076;2023-09-12T03:02:50;13.00;10.50;6.00
80555;PMS5003;69889;55.040;73.076;2023-09-12T03:05:17;11.00;9.00;5.00
80555;PMS5003;69889;55.040;73.076;2023-09-12T03:07:44;12.00;10.00;6.00
80555;PMS5003;69889;55.040;73.076;2023-09-12T03:10:10;14.75;11.75;7.00
80555;PMS5003;69889;55.040;73.076;2023-09-12T03:12:37;14.50;12.00;6.00
80555;PMS5003;69889;55.040;73.076;2023-09-12T03:15:03;12.75;10.00;6.00
80555;PMS5003;69889;55.040;73.076;2023-09-12T03:17:30;12.50;10.00;6.00
80555;PMS5003;69889;55.040;73.076;2023-09-12T03:19:57;9.00;7.25;5.00
80555;PMS5003;69889;55.040;73.076;2023-09-12T03:22:23;11.00;9.00;4.00
80555;PMS5003;69889;55.040;73.076;2023-09-12T03:24:50;11.00;9.00;5.00
80555;PMS5003;69889;55.040;73.076;2023-09-12T03:27:17;12.00;10.00;6.00
80555;PMS5003;69889;55.040;73.076;2023-09-12T03:29:46;11.00;9.00;5.00
80555;PMS5003;69889;55.040;73.076;2023-09-12T03:32:13;12.00;9.50;5.25
80555;PMS5003;69889;55.040;73.076;2023-09-12T03:34:40;10.00;8.00;5.00
80555;PMS5003;69889;55.040;73.076;2023-09-12T03:37:06;12.00;10.00;5.00
80555;PMS5003;69889;55.040;73.076;2023-09-12T03:39:34;17.00;13.00;7.00
80555;PMS5003;69889;55.040;73.076;2023-09-12T03:42:01;11.00;9.00;4.25
80555;PMS5003;69889;55.040;73.076;2023-09-12T03:44:27;11.25;8.00;6.00
80555;PMS5003;69889;55.040;73.076;2023-09-12T03:46:54;12.50;10.00;6.00
80555;PMS5003;69889;55.040;73.076;2023-09-12T03:49:22;13.25;10.25;6.00
80555;PMS5003;69889;55.040;73.076;2023-09-12T03:51:50;12.00;10.00;5.00
80555;PMS5003;69889;55.040;73.076;2023-09-12T03:54:17;13.00;10.00;6.00
80555;PMS5003;69889;55.040;73.076;2023-09-12T03:56:44;12.75;10.00;6.00
80555;PMS5003;69889;55.040;73.076;2023-09-12T03:59:11;14.00;10.50;5.75
80555;PMS5003;69889;55.040;73.076;2023-09-12T04:01:38;12.00;10.00;6.00
80555;PMS5003;69889;55.040;73.076;2023-09-12T04:04:04;12.25;10.00;6.00
80555;PMS5003;69889;55.040;73.076;2023-09-12T04:06:31;10.50;8.00;5.00
80555;PMS5003;69889;55.040;73.076;2023-09-12T04:08:58;10.25;8.50;5.75
80555;PMS5003;69889;55.040;73.076;2023-09-12T04:11:24;9.75;7.50;4.00
80555;PMS5003;69889;55.040;73.076;2023-09-12T04:13:51;18.00;14.00;8.00
80555;PMS5003;69889;55.040;73.076;2023-09-12T04:16:17;13.25;10.00;6.00
80555;PMS5003;69889;55.040;73.076;2023-09-12T04:18:44;14.25;10.25;6.00
80555;PMS5003;69889;55.040;73.076;2023-09-12T04:21:11;13.00;10.50;6.00
80555;PMS5003;69889;55.040;73.076;2023-09-12T04:23:38;14.25;10.75;6.00
80555;PMS5003;69889;55.040;73.076;2023-09-12T04:26:04;17.00;14.00;7.00
80555;PMS5003;69889;55.040;73.076;2023-09-12T04:28:31;17.00;13.25;7.00
80555;PMS5003;69889;55.040;73.076;2023-09-12T04:31:02;10.00;7.75;4.75
80555;PMS5003;69889;55.040;73.076;2023-09-12T04:33:29;10.00;8.00;5.00
80555;PMS5003;69889;55.040;73.076;2023-09-12T04:36:02;10.00;8.25;5.00
80555;PMS5003;69889;55.040;73.076;2023-09-12T04:38:29;12.00;10.00;5.00
80555;PMS5003;69889;55.040;73.076;2023-09-12T04:40:56;10.00;9.00;6.00
80555;PMS5003;69889;55.040;73.076;2023-09-12T04:43:24;8.00;7.00;4.00
80555;PMS5003;69889;55.040;73.076;2023-09-12T04:45:50;9.75;8.00;5.00
80555;PMS5003;69889;55.040;73.076;2023-09-12T04:48:17;8.50;7.50;5.00
80555;PMS5003;69889;55.040;73.076;2023-09-12T04:50:44;9.00;8.00;5.00
80555;PMS5003;69889;55.040;73.076;2023-09-12T04:53:11;6.00;5.25;4.00
80555;PMS5003;69889;55.040;73.076;2023-09-12T04:55:38;8.00;7.00;4.00
80555;PMS5003;69889;55.040;73.076;2023-09-12T04:58:05;8.00;7.00;4.00
80555;PMS5003;69889;55.040;73.076;2023-09-12T05:00:32;7.00;7.00;5.00
80555;PMS5003;69889;55.040;73.076;2023-09-12T05:03:00;11.00;9.00;5.00
80555;PMS5003;69889;55.040;73.076;2023-09-12T05:05:27;12.00;8.00;5.00
80555;PMS5003;69889;55.040;73.076;2023-09-12T05:07:54;13.00;10.75;6.00
80555;PMS5003;69889;55.040;73.076;2023-09-12T05:10:20;7.00;7.00;5.00
80555;PMS5003;69889;55.040;73.076;2023-09-12T05:12:48;11.00;9.00;5.00
80555;PMS5003;69889;55.040;73.076;2023-09-12T05:15:15;9.00;8.00;5.00
80555;PMS5003;69889;55.040;73.076;2023-09-12T05:17:41;7.00;6.00;4.00
80555;PMS5003;69889;55.040;73.076;2023-09-12T05:20:08;8.00;7.00;5.00
80555;PMS5003;69889;55.040;73.076;2023-09-12T05:22:35;7.50;7.00;5.00
80555;PMS5003;69889;55.040;73.076;2023-09-12T05:25:01;11.00;8.00;5.00
80555;PMS5003;69889;55.040;73.076;2023-09-12T05:27:28;7.00;6.50;4.00
80555;PMS5003;69889;55.040;73.076;2023-09-12T05:29:55;12.00;10.00;5.00
80555;PMS5003;69889;55.040;73.076;2023-09-12T05:32:21;9.50;8.00;5.00
80555;PMS5003;69889;55.040;73.076;2023-09-12T05:34:48;9.00;8.00;5.00
80555;PMS5003;69889;55.040;73.076;2023-09-12T05:37:16;7.25;7.00;5.00
80555;PMS5003;69889;55.040;73.076;2023-09-12T05:39:43;9.00;8.00;5.75
80555;PMS5003;69889;55.040;73.076;2023-09-12T05:42:09;7.00;7.00;5.00
80555;PMS5003;69889;55.040;73.076;2023-09-12T05:44:36;6.00;6.00;4.00
80555;PMS5003;69889;55.040;73.076;2023-09-12T05:47:03;14.25;11.00;7.00
80555;PMS5003;69889;55.040;73.076;2023-09-12T05:49:30;20.25;15.75;8.00
80555;PMS5003;69889;55.040;73.076;2023-09-12T05:51:56;16.00;13.00;7.00
80555;PMS5003;69889;55.040;73.076;2023-09-12T05:54:23;7.75;7.00;5.00
80555;PMS5003;69889;55.040;73.076;2023-09-12T05:56:50;10.00;9.00;6.00
80555;PMS5003;69889;55.040;73.076;2023-09-12T05:59:17;10.00;8.50;4.75
80555;PMS5003;69889;55.040;73.076;2023-09-12T06:01:44;8.00;7.00;5.00
80555;PMS5003;69889;55.040;73.076;2023-09-12T06:04:11;13.75;11.00;7.00
80555;PMS5003;69889;55.040;73.076;2023-09-12T06:06:38;6.00;5.25;4.00
80555;PMS5003;69889;55.040;73.076;2023-09-12T06:09:05;8.50;7.50;4.00
80555;PMS5003;69889;55.040;73.076;2023-09-12T06:11:31;10.00;9.00;5.00
80555;PMS5003;69889;55.040;73.076;2023-09-12T06:13:58;7.50;7.00;5.00
80555;PMS5003;69889;55.040;73.076;2023-09-12T06:16:25;8.00;7.00;5.00
80555;PMS5003;69889;55.040;73.076;2023-09-12T06:18:51;9.50;8.25;5.00
80555;PMS5003;69889;55.040;73.076;2023-09-12T06:21:19;9.00;8.00;5.25
80555;PMS5003;69889;55.040;73.076;2023-09-12T06:23:48;7.00;6.00;4.50
80555;PMS5003;69889;55.040;73.076;2023-09-12T06:26:14;8.00;8.00;5.25
80555;PMS5003;69889;55.040;73.076;2023-09-12T06:28:41;8.00;7.00;4.00
80555;PMS5003;69889;55.040;73.076;2023-09-12T06:31:08;7.00;6.00;5.00
80555;PMS5003;69889;55.040;73.076;2023-09-12T06:33:35;7.25;7.00;5.00
80555;PMS5003;69889;55.040;73.076;2023-09-12T06:36:03;7.00;7.00;5.00
80555;PMS5003;69889;55.040;73.076;2023-09-12T06:38:30;8.00;7.00;5.00
80555;PMS5003;69889;55.040;73.076;2023-09-12T06:40:56;9.00;7.25;5.00
80555;PMS5003;69889;55.040;73.076;2023-09-12T06:43:23;9.00;8.00;6.00
80555;PMS5003;69889;55.040;73.076;2023-09-12T06:45:51;14.25;11.50;7.00
80555;PMS5003;69889;55.040;73.076;2023-09-12T06:48:17;25.00;19.00;9.00
80555;PMS5003;69889;55.040;73.076;2023-09-12T06:50:44;11.00;9.00;6.00
80555;PMS5003;69889;55.040;73.076;2023-09-12T06:53:11;9.00;8.00;6.00
80555;PMS5003;69889;55.040;73.076;2023-09-12T06:55:37;14.00;11.75;7.00
80555;PMS5003;69889;55.040;73.076;2023-09-12T06:58:04;13.00;10.25;6.00
80555;PMS5003;69889;55.040;73.076;2023-09-12T07:00:31;10.00;9.00;5.00
80555;PMS5003;69889;55.040;73.076;2023-09-12T07:02:58;11.00;9.00;6.00
80555;PMS5003;69889;55.040;73.076;2023-09-12T07:05:24;7.00;6.50;5.00
80555;PMS5003;69889;55.040;73.076;2023-09-12T07:07:52;14.00;11.00;6.00
80555;PMS5003;69889;55.040;73.076;2023-09-12T07:10:18;9.50;8.00;5.00
80555;PMS5003;69889;55.040;73.076;2023-09-12T07:12:45;14.00;12.00;7.00
80555;PMS5003;69889;55.040;73.076;2023-09-12T07:15:11;10.25;9.00;5.00
80555;PMS5003;69889;55.040;73.076;2023-09-12T07:17:39;12.00;9.00;6.00
80555;PMS5003;69889;55.040;73.076;2023-09-12T07:20:06;8.00;7.00;4.00
80555;PMS5003;69889;55.040;73.076;2023-09-12T07:22:38;6.25;6.00;5.00
80555;PMS5003;69889;55.040;73.076;2023-09-12T07:25:06;7.50;7.00;5.00
80555;PMS5003;69889;55.040;73.076;2023-09-12T07:27:33;8.00;8.00;5.00
80555;PMS5003;69889;55.040;73.076;2023-09-12T07:29:59;9.00;8.00;5.00
80555;PMS5003;69889;55.040;73.076;2023-09-12T07:32:27;9.00;8.00;5.00
80555;PMS5003;69889;55.040;73.076;2023-09-12T07:34:53;9.00;7.75;5.00
80555;PMS5003;69889;55.040;73.076;2023-09-12T07:37:20;7.00;7.00;5.00
80555;PMS5003;69889;55.040;73.076;2023-09-12T07:39:46;8.00;7.00;5.00
80555;PMS5003;69889;55.040;73.076;2023-09-12T07:42:13;7.75;7.00;5.00
80555;PMS5003;69889;55.040;73.076;2023-09-12T07:44:39;8.50;8.00;5.00
80555;PMS5003;69889;55.040;73.076;2023-09-12T07:47:06;9.00;8.00;5.00
80555;PMS5003;69889;55.040;73.076;2023-09-12T07:49:33;9.00;8.00;5.75
80555;PMS5003;69889;55.040;73.076;2023-09-12T07:52:00;8.00;7.00;5.00
80555;PMS5003;69889;55.040;73.076;2023-09-12T07:54:27;9.00;8.00;4.50
80555;PMS5003;69889;55.040;73.076;2023-09-12T07:56:54;7.00;7.00;5.00
80555;PMS5003;69889;55.040;73.076;2023-09-12T07:59:21;7.00;6.00;4.00
80555;PMS5003;69889;55.040;73.076;2023-09-12T08:01:48;8.00;7.00;5.00
80555;PMS5003;69889;55.040;73.076;2023-09-12T08:04:15;10.00;9.00;6.00
80555;PMS5003;69889;55.040;73.076;2023-09-12T08:06:41;8.25;8.00;5.00
80555;PMS5003;69889;55.040;73.076;2023-09-12T08:09:09;8.00;7.00;5.00
80555;PMS5003;69889;55.040;73.076;2023-09-12T08:11:36;12.00;11.00;7.00
80555;PMS5003;69889;55.040;73.076;2023-09-12T08:14:02;11.00;10.00;7.00
80555;PMS5003;69889;55.040;73.076;2023-09-12T08:16:29;11.00;9.00;6.00
80555;PMS5003;69889;55.040;73.076;2023-09-12T08:18:57;8.00;7.25;5.00
80555;PMS5003;69889;55.040;73.076;2023-09-12T08:21:24;10.25;9.00;6.00
80555;PMS5003;69889;55.040;73.076;2023-09-12T08:23:51;10.00;9.00;6.00
80555;PMS5003;69889;55.040;73.076;2023-09-12T08:26:17;8.00;7.50;5.00
80555;PMS5003;69889;55.040;73.076;2023-09-12T08:28:44;9.00;8.00;5.00
80555;PMS5003;69889;55.040;73.076;2023-09-12T08:31:10;8.00;7.00;5.00
80555;PMS5003;69889;55.040;73.076;2023-09-12T08:33:37;8.50;8.00;5.00
80555;PMS5003;69889;55.040;73.076;2023-09-12T08:36:04;8.50;8.00;5.00
80555;PMS5003;69889;55.040;73.076;2023-09-12T08:38:31;6.00;6.00;4.00
80555;PMS5003;69889;55.040;73.076;2023-09-12T08:40:57;7.50;7.00;4.75
80555;PMS5003;69889;55.040;73.076;2023-09-12T08:43:24;7.25;7.00;5.00
80555;PMS5003;69889;55.040;73.076;2023-09-12T08:45:52;8.00;8.00;5.75
80555;PMS5003;69889;55.040;73.076;2023-09-12T08:48:18;8.00;6.50;5.00
80555;PMS5003;69889;55.040;73.076;2023-09-12T08:50:46;9.00;8.00;5.00
80555;PMS5003;69889;55.040;73.076;2023-09-12T08:53:14;9.00;8.00;5.00
80555;PMS5003;69889;55.040;73.076;2023-09-12T08:55:41;8.00;7.75;5.75
80555;PMS5003;69889;55.040;73.076;2023-09-12T08:58:08;13.00;11.00;6.50
80555;PMS5003;69889;55.040;73.076;2023-09-12T09:00:34;14.00;12.00;7.00
80555;PMS5003;69889;55.040;73.076;2023-09-12T09:03:02;13.00;11.00;6.00
80555;PMS5003;69889;55.040;73.076;2023-09-12T09:05:29;10.00;9.00;6.00
80555;PMS5003;69889;55.040;73.076;2023-09-12T09:07:57;7.75;7.00;5.00
80555;PMS5003;69889;55.040;73.076;2023-09-12T09:10:25;9.00;9.00;5.00
80555;PMS5003;69889;55.040;73.076;2023-09-12T09:12:53;9.00;7.50;6.00
80555;PMS5003;69889;55.040;73.076;2023-09-12T09:15:27;7.75;7.00;5.00
80555;PMS5003;69889;55.040;73.076;2023-09-12T09:17:54;7.00;6.50;5.00
80555;PMS5003;69889;55.040;73.076;2023-09-12T09:20:28;9.00;8.00;6.00
80555;PMS5003;69889;55.040;73.076;2023-09-12T09:22:59;8.00;7.00;5.00
80555;PMS5003;69889;55.040;73.076;2023-09-12T09:25:27;10.00;9.00;6.00
80555;PMS5003;69889;55.040;73.076;2023-09-12T09:27:54;8.00;8.00;6.00
80555;PMS5003;69889;55.040;73.076;2023-09-12T09:33:06;8.00;8.00;5.00
80555;PMS5003;69889;55.040;73.076;2023-09-12T09:35:33;7.00;7.00;5.00
80555;PMS5003;69889;55.040;73.076;2023-09-12T09:38:00;8.00;7.00;5.00
80555;PMS5003;69889;55.040;73.076;2023-09-12T09:40:27;8.50;8.00;5.00
80555;PMS5003;69889;55.040;73.076;2023-09-12T09:43:01;9.25;8.00;5.00
80555;PMS5003;69889;55.040;73.076;2023-09-12T09:45:31;10.00;8.75;6.00
80555;PMS5003;69889;55.040;73.076;2023-09-12T09:48:03;9.00;8.00;6.00
80555;PMS5003;69889;55.040;73.076;2023-09-12T09:50:30;9.00;8.00;6.00
80555;PMS5003;69889;55.040;73.076;2023-09-12T09:52:57;9.50;8.75;7.00
80555;PMS5003;69889;55.040;73.076;2023-09-12T09:55:23;9.25;9.00;6.00
80555;PMS5003;69889;55.040;73.076;2023-09-12T09:57:50;9.25;8.00;5.00
80555;PMS5003;69889;55.040;73.076;2023-09-12T10:00:20;10.00;9.00;6.00
80555;PMS5003;69889;55.040;73.076;2023-09-12T10:02:48;8.00;7.50;5.00
80555;PMS5003;69889;55.040;73.076;2023-09-12T10:05:15;10.00;9.00;6.75
80555;PMS5003;69889;55.040;73.076;2023-09-12T10:07:44;9.00;8.25;6.00
80555;PMS5003;69889;55.040;73.076;2023-09-12T10:10:12;9.00;8.00;5.00
80555;PMS5003;69889;55.040;73.076;2023-09-12T10:12:49;8.00;8.00;6.00
80555;PMS5003;69889;55.040;73.076;2023-09-12T10:15:20;10.00;9.00;6.00
80555;PMS5003;69889;55.040;73.076;2023-09-12T10:17:47;11.00;10.00;7.00
80555;PMS5003;69889;55.040;73.076;2023-09-12T10:20:20;9.00;8.00;6.00
80555;PMS5003;69889;55.040;73.076;2023-09-12T10:25:14;12.00;10.00;6.00
80555;PMS5003;69889;55.040;73.076;2023-09-12T10:27:41;10.75;9.50;6.00
80555;PMS5003;69889;55.040;73.076;2023-09-12T10:30:08;10.00;9.25;7.00
80555;PMS5003;69889;55.040;73.076;2023-09-12T10:32:35;10.75;9.00;5.00
80555;PMS5003;69889;55.040;73.076;2023-09-12T10:35:02;9.00;8.75;5.75
80555;PMS5003;69889;55.040;73.076;2023-09-12T10:37:31;8.75;8.00;5.00
80555;PMS5003;69889;55.040;73.076;2023-09-12T10:39:59;10.00;9.00;6.00
80555;PMS5003;69889;55.040;73.076;2023-09-12T10:42:27;23.50;20.00;13.00
80555;PMS5003;69889;55.040;73.076;2023-09-12T10:44:55;11.25;8.25;6.75
80555;PMS5003;69889;55.040;73.076;2023-09-12T10:47:21;10.00;9.00;6.00
80555;PMS5003;69889;55.040;73.076;2023-09-12T10:49:48;9.00;8.25;6.00
80555;PMS5003;69889;55.040;73.076;2023-09-12T10:52:25;9.75;9.00;6.00
80555;PMS5003;69889;55.040;73.076;2023-09-12T10:54:52;14.25;13.75;10.00
80555;PMS5003;69889;55.040;73.076;2023-09-12T10:57:19;9.00;9.00;7.00
80555;PMS5003;69889;55.040;73.076;2023-09-12T11:02:33;9.00;9.00;7.00
80555;PMS5003;69889;55.040;73.076;2023-09-12T11:07:47;11.00;10.00;7.00
80555;PMS5003;69889;55.040;73.076;2023-09-12T11:12:47;11.00;9.25;6.00
80555;PMS5003;69889;55.040;73.076;2023-09-12T11:15:18;10.00;9.00;6.00
80555;PMS5003;69889;55.040;73.076;2023-09-12T11:17:46;11.00;9.50;7.00
80555;PMS5003;69889;55.040;73.076;2023-09-12T11:20:13;8.50;7.75;5.50
80555;PMS5003;69889;55.040;73.076;2023-09-12T11:22:45;10.00;8.00;6.00
80555;PMS5003;69889;55.040;73.076;2023-09-12T11:27:45;9.50;8.50;6.00
80555;PMS5003;69889;55.040;73.076;2023-09-12T11:30:24;10.00;9.00;6.00
80555;PMS5003;69889;55.040;73.076;2023-09-12T11:33:10;9.00;8.00;6.00
80555;PMS5003;69889;55.040;73.076;2023-09-12T11:35:37;10.00;9.00;6.00
80555;PMS5003;69889;55.040;73.076;2023-09-12T11:38:04;9.00;8.00;5.00
80555;PMS5003;69889;55.040;73.076;2023-09-12T11:43:03;9.00;8.00;6.00
80555;PMS5003;69889;55.040;73.076;2023-09-12T11:45:30;10.00;9.00;6.00
80555;PMS5003;69889;55.040;73.076;2023-09-12T11:47:58;9.00;8.00;5.25
80555;PMS5003;69889;55.040;73.076;2023-09-12T11:53:27;9.00;8.00;6.00
80555;PMS5003;69889;55.040;73.076;2023-09-12T11:55:48;9.00;8.00;5.00
80555;PMS5003;69889;55.040;73.076;2023-09-12T11:58:18;8.00;8.00;5.50
80555;PMS5003;69889;55.040;73.076;2023-09-12T12:00:49;10.25;9.00;6.00
80555;PMS5003;69889;55.040;73.076;2023-09-12T12:03:17;10.00;9.00;6.00
80555;PMS5003;69889;55.040;73.076;2023-09-12T12:05:45;11.00;10.00;6.75
80555;PMS5003;69889;55.040;73.076;2023-09-12T12:08:11;8.00;8.00;6.00
80555;PMS5003;69889;55.040;73.076;2023-09-12T12:10:38;10.00;9.00;6.00
80555;PMS5003;69889;55.040;73.076;2023-09-12T12:13:06;12.50;10.50;7.75
80555;PMS5003;69889;55.040;73.076;2023-09-12T12:15:37;9.00;8.00;6.00
80555;PMS5003;69889;55.040;73.076;2023-09-12T12:18:03;12.00;11.00;7.50
80555;PMS5003;69889;55.040;73.076;2023-09-12T12:20:30;11.00;9.75;7.00
80555;PMS5003;69889;55.040;73.076;2023-09-12T12:22:57;11.00;10.25;8.00
80555;PMS5003;69889;55.040;73.076;2023-09-12T12:25:23;10.25;9.75;7.00
80555;PMS5003;69889;55.040;73.076;2023-09-12T12:27:50;12.00;10.50;7.00
80555;PMS5003;69889;55.040;73.076;2023-09-12T12:30:17;12.00;10.00;7.00
80555;PMS5003;69889;55.040;73.076;2023-09-12T12:32:46;12.50;11.00;7.25
80555;PMS5003;69889;55.040;73.076;2023-09-12T12:35:19;12.00;11.00;7.00
80555;PMS5003;69889;55.040;73.076;2023-09-12T12:37:47;12.00;10.00;7.00
80555;PMS5003;69889;55.040;73.076;2023-09-12T12:40:15;12.00;12.00;8.00
80555;PMS5003;69889;55.040;73.076;2023-09-12T12:42:43;13.25;11.75;8.00
80555;PMS5003;69889;55.040;73.076;2023-09-12T12:45:13;12.00;11.00;8.25
80555;PMS5003;69889;55.040;73.076;2023-09-12T12:47:40;13.00;12.00;9.00
80555;PMS5003;69889;55.040;73.076;2023-09-12T12:50:08;13.00;12.00;8.00
80555;PMS5003;69889;55.040;73.076;2023-09-12T12:52:35;12.00;11.00;7.00
80555;PMS5003;69889;55.040;73.076;2023-09-12T12:55:04;13.00;12.00;8.00
80555;PMS5003;69889;55.040;73.076;2023-09-12T12:57:31;13.00;11.00;8.00
80555;PMS5003;69889;55.040;73.076;2023-09-12T12:59:58;14.50;13.00;8.00
80555;PMS5003;69889;55.040;73.076;2023-09-12T13:02:25;15.00;13.00;8.00
80555;PMS5003;69889;55.040;73.076;2023-09-12T13:04:52;12.25;11.00;7.25
80555;PMS5003;69889;55.040;73.076;2023-09-12T13:07:19;12.00;11.00;8.00
80555;PMS5003;69889;55.040;73.076;2023-09-12T13:09:45;12.00;11.00;8.00
80555;PMS5003;69889;55.040;73.076;2023-09-12T13:12:14;13.00;11.00;7.25
80555;PMS5003;69889;55.040;73.076;2023-09-12T13:14:41;12.75;12.00;8.00
80555;PMS5003;69889;55.040;73.076;2023-09-12T13:17:07;11.00;10.00;7.00
80555;PMS5003;69889;55.040;73.076;2023-09-12T13:19:34;12.00;11.00;7.00
80555;PMS5003;69889;55.040;73.076;2023-09-12T13:22:01;9.00;8.00;7.00
80555;PMS5003;69889;55.040;73.076;2023-09-12T13:24:29;11.00;10.00;7.00
80555;PMS5003;69889;55.040;73.076;2023-09-12T13:26:55;9.75;9.75;7.00
80555;PMS5003;69889;55.040;73.076;2023-09-12T13:29:22;11.00;11.00;8.00
80555;PMS5003;69889;55.040;73.076;2023-09-12T13:31:48;12.00;11.00;7.00
80555;PMS5003;69889;55.040;73.076;2023-09-12T13:34:15;10.25;10.00;7.00
80555;PMS5003;69889;55.040;73.076;2023-09-12T13:36:42;10.00;10.00;7.00
80555;PMS5003;69889;55.040;73.076;2023-09-12T13:39:09;11.75;10.50;7.00
80555;PMS5003;69889;55.040;73.076;2023-09-12T13:41:36;13.00;11.00;7.00
80555;PMS5003;69889;55.040;73.076;2023-09-12T13:44:03;9.25;9.00;6.00
80555;PMS5003;69889;55.040;73.076;2023-09-12T13:46:29;10.75;10.00;7.00
80555;PMS5003;69889;55.040;73.076;2023-09-12T13:48:56;11.00;10.00;6.00
80555;PMS5003;69889;55.040;73.076;2023-09-12T13:51:26;7.25;7.00;5.00
80555;PMS5003;69889;55.040;73.076;2023-09-12T13:53:53;9.00;8.00;6.00
80555;PMS5003;69889;55.040;73.076;2023-09-12T13:56:20;9.50;8.75;6.00
80555;PMS5003;69889;55.040;73.076;2023-09-12T13:58:46;9.00;9.00;7.00
80555;PMS5003;69889;55.040;73.076;2023-09-12T14:01:13;8.00;8.00;6.00
80555;PMS5003;69889;55.040;73.076;2023-09-12T14:03:40;10.00;9.00;6.00
80555;PMS5003;69889;55.040;73.076;2023-09-12T14:06:07;11.00;10.00;7.00
80555;PMS5003;69889;55.040;73.076;2023-09-12T14:08:34;11.00;9.00;6.00
80555;PMS5003;69889;55.040;73.076;2023-09-12T14:11:00;9.00;8.00;6.00
80555;PMS5003;69889;55.040;73.076;2023-09-12T14:13:27;10.00;9.00;6.00
80555;PMS5003;69889;55.040;73.076;2023-09-12T14:15:53;9.00;8.50;6.00
80555;PMS5003;69889;55.040;73.076;2023-09-12T14:18:21;8.50;7.75;5.25
80555;PMS5003;69889;55.040;73.076;2023-09-12T14:20:47;9.00;8.50;6.00
80555;PMS5003;69889;55.040;73.076;2023-09-12T14:23:14;10.00;9.00;5.75
80555;PMS5003;69889;55.040;73.076;2023-09-12T14:25:41;10.00;9.00;6.75
80555;PMS5003;69889;55.040;73.076;2023-09-12T14:28:07;11.00;10.00;7.00
80555;PMS5003;69889;55.040;73.076;2023-09-12T14:30:34;10.00;9.00;7.00